Terminal Aerodrome Forecast
Issued by NWS Louisville, KY

Home | Current Version | Previous Version | Text Only | Print | Product List | Glossary On
Versions: 1 2 3 4 5 6 7 8 9 10 11 12 13 14
000
FTUS43 KLMK 191141
TAFLEX
TAF
KLEX 191141Z 1912/2012 20004KT P6SM FEW060 SCT200
     FM191600 22008KT P6SM VCTS FEW040CB SCT200
     FM192000 25008KT P6SM FEW040 SCT200
     FM192300 28004KT P6SM FEW050 FEW250
      TEMPO 2009/2012 4SM BR=

USA.gov is the U.S. government's official web portal to all federal, state and local government web resources and services.